sensor_id;sensor_type;location;lat;lon;timestamp;P1;durP1;ratioP1;P2;durP2;ratioP2
65879;SDS011;52661;51.364;6.054;2023-06-26T00:01:29;10.52;;;7.20;;
65879;SDS011;52661;51.364;6.054;2023-06-26T00:03:56;9.60;;;8.30;;
65879;SDS011;52661;51.364;6.054;2023-06-26T00:06:21;9.48;;;6.65;;
65879;SDS011;52661;51.364;6.054;2023-06-26T00:08:49;10.52;;;6.85;;
65879;SDS011;52661;51.364;6.054;2023-06-26T00:11:15;10.75;;;7.03;;
65879;SDS011;52661;51.364;6.054;2023-06-26T00:13:41;12.15;;;7.57;;
65879;SDS011;52661;51.364;6.054;2023-06-26T00:16:06;10.82;;;8.45;;
65879;SDS011;52661;51.364;6.054;2023-06-26T00:18:32;9.70;;;7.63;;
65879;SDS011;52661;51.364;6.054;2023-06-26T00:20:57;8.80;;;6.47;;
65879;SDS011;52661;51.364;6.054;2023-06-26T00:23:22;12.50;;;5.97;;
65879;SDS011;52661;51.364;6.054;2023-06-26T00:25:48;9.20;;;7.37;;
65879;SDS011;52661;51.364;6.054;2023-06-26T00:28:13;9.50;;;7.17;;
65879;SDS011;52661;51.364;6.054;2023-06-26T00:30:38;10.57;;;8.17;;
65879;SDS011;52661;51.364;6.054;2023-06-26T00:33:04;9.30;;;6.03;;
65879;SDS011;52661;51.364;6.054;2023-06-26T00:35:29;10.68;;;6.50;;
65879;SDS011;52661;51.364;6.054;2023-06-26T00:37:54;9.10;;;6.60;;
65879;SDS011;52661;51.364;6.054;2023-06-26T00:40:19;10.07;;;6.67;;
65879;SDS011;52661;51.364;6.054;2023-06-26T00:42:45;9.73;;;6.87;;
65879;SDS011;52661;51.364;6.054;2023-06-26T00:45:10;10.17;;;7.43;;
65879;SDS011;52661;51.364;6.054;2023-06-26T00:47:36;10.32;;;6.97;;
65879;SDS011;52661;51.364;6.054;2023-06-26T00:50:02;16.10;;;7.40;;
65879;SDS011;52661;51.364;6.054;2023-06-26T00:52:28;11.00;;;6.93;;
65879;SDS011;52661;51.364;6.054;2023-06-26T00:54:54;11.70;;;6.38;;
65879;SDS011;52661;51.364;6.054;2023-06-26T00:57:20;9.88;;;6.60;;
65879;SDS011;52661;51.364;6.054;2023-06-26T00:59:45;11.18;;;7.28;;
65879;SDS011;52661;51.364;6.054;2023-06-26T01:02:11;9.75;;;6.47;;
65879;SDS011;52661;51.364;6.054;2023-06-26T01:04:36;9.67;;;6.13;;
65879;SDS011;52661;51.364;6.054;2023-06-26T01:07:02;11.57;;;7.20;;
65879;SDS011;52661;51.364;6.054;2023-06-26T01:09:28;9.95;;;6.18;;
65879;SDS011;52661;51.364;6.054;2023-06-26T01:11:55;10.05;;;5.80;;
65879;SDS011;52661;51.364;6.054;2023-06-26T01:14:21;11.00;;;6.10;;
65879;SDS011;52661;51.364;6.054;2023-06-26T01:16:46;10.23;;;6.05;;
65879;SDS011;52661;51.364;6.054;2023-06-26T01:19:18;9.18;;;5.90;;
65879;SDS011;52661;51.364;6.054;2023-06-26T01:21:50;9.65;;;6.05;;
65879;SDS011;52661;51.364;6.054;2023-06-26T01:24:39;10.07;;;6.60;;
65879;SDS011;52661;51.364;6.054;2023-06-26T01:27:10;9.60;;;6.43;;
65879;SDS011;52661;51.364;6.054;2023-06-26T01:32:03;10.68;;;6.00;;
65879;SDS011;52661;51.364;6.054;2023-06-26T01:34:29;10.25;;;6.35;;
65879;SDS011;52661;51.364;6.054;2023-06-26T01:36:54;8.90;;;5.90;;
65879;SDS011;52661;51.364;6.054;2023-06-26T01:39:20;9.23;;;6.82;;
65879;SDS011;52661;51.364;6.054;2023-06-26T01:41:45;10.00;;;5.68;;
65879;SDS011;52661;51.364;6.054;2023-06-26T01:44:26;7.80;;;5.22;;
65879;SDS011;52661;51.364;6.054;2023-06-26T01:49:28;8.23;;;6.97;;
65879;SDS011;52661;51.364;6.054;2023-06-26T01:54:33;7.35;;;4.85;;
65879;SDS011;52661;51.364;6.054;2023-06-26T01:57:16;8.63;;;6.03;;
65879;SDS011;52661;51.364;6.054;2023-06-26T01:59:43;8.38;;;6.05;;
65879;SDS011;52661;51.364;6.054;2023-06-26T02:02:10;7.93;;;4.43;;
65879;SDS011;52661;51.364;6.054;2023-06-26T02:04:35;6.53;;;4.28;;
65879;SDS011;52661;51.364;6.054;2023-06-26T02:07:02;6.32;;;3.88;;
65879;SDS011;52661;51.364;6.054;2023-06-26T02:09:27;6.18;;;3.78;;
65879;SDS011;52661;51.364;6.054;2023-06-26T02:11:53;7.50;;;5.28;;
65879;SDS011;52661;51.364;6.054;2023-06-26T02:14:18;6.10;;;3.65;;
65879;SDS011;52661;51.364;6.054;2023-06-26T02:16:43;8.23;;;4.33;;
65879;SDS011;52661;51.364;6.054;2023-06-26T02:19:09;7.80;;;4.35;;
65879;SDS011;52661;51.364;6.054;2023-06-26T02:21:34;7.20;;;5.37;;
65879;SDS011;52661;51.364;6.054;2023-06-26T02:24:00;6.47;;;4.13;;
65879;SDS011;52661;51.364;6.054;2023-06-26T02:26:26;8.32;;;4.13;;
65879;SDS011;52661;51.364;6.054;2023-06-26T02:28:51;7.50;;;4.67;;
65879;SDS011;52661;51.364;6.054;2023-06-26T02:31:17;7.03;;;4.50;;
65879;SDS011;52661;51.364;6.054;2023-06-26T02:33:42;10.20;;;6.25;;
65879;SDS011;52661;51.364;6.054;2023-06-26T02:36:10;10.10;;;6.07;;
65879;SDS011;52661;51.364;6.054;2023-06-26T02:38:35;8.98;;;4.07;;
65879;SDS011;52661;51.364;6.054;2023-06-26T02:41:01;7.50;;;4.38;;
65879;SDS011;52661;51.364;6.054;2023-06-26T02:43:26;6.75;;;4.53;;
65879;SDS011;52661;51.364;6.054;2023-06-26T02:45:52;13.60;;;5.10;;
65879;SDS011;52661;51.364;6.054;2023-06-26T02:48:17;10.27;;;5.93;;
65879;SDS011;52661;51.364;6.054;2023-06-26T02:50:42;6.60;;;4.13;;
65879;SDS011;52661;51.364;6.054;2023-06-26T02:53:10;8.10;;;5.03;;
65879;SDS011;52661;51.364;6.054;2023-06-26T02:55:36;8.98;;;5.07;;
65879;SDS011;52661;51.364;6.054;2023-06-26T02:58:01;11.90;;;5.13;;
65879;SDS011;52661;51.364;6.054;2023-06-26T03:00:27;10.27;;;5.40;;
65879;SDS011;52661;51.364;6.054;2023-06-26T03:02:54;7.30;;;4.50;;
65879;SDS011;52661;51.364;6.054;2023-06-26T03:05:20;8.43;;;4.72;;
65879;SDS011;52661;51.364;6.054;2023-06-26T03:07:46;8.15;;;4.07;;
65879;SDS011;52661;51.364;6.054;2023-06-26T03:10:11;8.32;;;4.55;;
65879;SDS011;52661;51.364;6.054;2023-06-26T03:12:37;7.20;;;3.88;;
65879;SDS011;52661;51.364;6.054;2023-06-26T03:15:02;9.50;;;4.73;;
65879;SDS011;52661;51.364;6.054;2023-06-26T03:17:28;6.80;;;4.85;;
65879;SDS011;52661;51.364;6.054;2023-06-26T03:19:53;8.47;;;4.57;;
65879;SDS011;52661;51.364;6.054;2023-06-26T03:22:18;8.73;;;3.90;;
65879;SDS011;52661;51.364;6.054;2023-06-26T03:24:44;7.03;;;3.35;;
65879;SDS011;52661;51.364;6.054;2023-06-26T03:27:10;6.88;;;4.15;;
65879;SDS011;52661;51.364;6.054;2023-06-26T03:29:36;7.80;;;3.58;;
65879;SDS011;52661;51.364;6.054;2023-06-26T03:32:01;8.93;;;3.57;;
65879;SDS011;52661;51.364;6.054;2023-06-26T03:34:26;6.83;;;3.10;;
65879;SDS011;52661;51.364;6.054;2023-06-26T03:36:52;5.38;;;3.40;;
65879;SDS011;52661;51.364;6.054;2023-06-26T03:39:17;6.07;;;3.13;;
65879;SDS011;52661;51.364;6.054;2023-06-26T03:41:42;7.03;;;3.00;;
65879;SDS011;52661;51.364;6.054;2023-06-26T03:44:07;7.33;;;3.93;;
65879;SDS011;52661;51.364;6.054;2023-06-26T03:46:33;6.20;;;3.10;;
65879;SDS011;52661;51.364;6.054;2023-06-26T03:48:58;7.03;;;3.27;;
65879;SDS011;52661;51.364;6.054;2023-06-26T03:51:23;4.07;;;2.05;;
65879;SDS011;52661;51.364;6.054;2023-06-26T03:53:49;4.75;;;2.22;;
65879;SDS011;52661;51.364;6.054;2023-06-26T03:56:14;5.18;;;2.45;;
65879;SDS011;52661;51.364;6.054;2023-06-26T03:58:39;5.70;;;2.50;;
65879;SDS011;52661;51.364;6.054;2023-06-26T04:01:05;5.90;;;2.13;;
65879;SDS011;52661;51.364;6.054;2023-06-26T04:03:30;6.90;;;2.95;;
65879;SDS011;52661;51.364;6.054;2023-06-26T04:05:56;4.40;;;1.85;;
65879;SDS011;52661;51.364;6.054;2023-06-26T04:08:23;4.75;;;2.30;;
65879;SDS011;52661;51.364;6.054;2023-06-26T04:10:50;7.25;;;2.13;;
65879;SDS011;52661;51.364;6.054;2023-06-26T04:13:16;5.95;;;2.15;;
65879;SDS011;52661;51.364;6.054;2023-06-26T04:15:42;5.87;;;1.63;;
65879;SDS011;52661;51.364;6.054;2023-06-26T04:18:07;4.32;;;2.00;;
65879;SDS011;52661;51.364;6.054;2023-06-26T04:20:32;8.60;;;1.87;;
65879;SDS011;52661;51.364;6.054;2023-06-26T04:23:00;7.53;;;2.58;;
65879;SDS011;52661;51.364;6.054;2023-06-26T04:25:25;7.40;;;2.33;;
65879;SDS011;52661;51.364;6.054;2023-06-26T04:27:54;7.25;;;2.78;;
65879;SDS011;52661;51.364;6.054;2023-06-26T04:30:19;4.95;;;3.17;;
65879;SDS011;52661;51.364;6.054;2023-06-26T04:32:45;5.43;;;2.08;;
65879;SDS011;52661;51.364;6.054;2023-06-26T04:35:10;9.40;;;2.97;;
65879;SDS011;52661;51.364;6.054;2023-06-26T04:37:36;5.78;;;2.17;;
65879;SDS011;52661;51.364;6.054;2023-06-26T04:40:01;6.22;;;2.00;;
65879;SDS011;52661;51.364;6.054;2023-06-26T04:42:29;11.07;;;2.38;;
65879;SDS011;52661;51.364;6.054;2023-06-26T04:44:54;6.70;;;2.25;;
65879;SDS011;52661;51.364;6.054;2023-06-26T04:47:19;9.85;;;2.45;;
65879;SDS011;52661;51.364;6.054;2023-06-26T04:49:45;8.27;;;3.00;;
65879;SDS011;52661;51.364;6.054;2023-06-26T04:52:11;5.28;;;1.95;;
65879;SDS011;52661;51.364;6.054;2023-06-26T04:54:39;6.95;;;2.08;;
65879;SDS011;52661;51.364;6.054;2023-06-26T04:57:04;7.72;;;2.30;;
65879;SDS011;52661;51.364;6.054;2023-06-26T04:59:30;6.53;;;3.30;;
65879;SDS011;52661;51.364;6.054;2023-06-26T05:01:56;7.82;;;2.85;;
65879;SDS011;52661;51.364;6.054;2023-06-26T05:04:22;9.90;;;2.42;;
65879;SDS011;52661;51.364;6.054;2023-06-26T05:06:47;7.70;;;3.47;;
65879;SDS011;52661;51.364;6.054;2023-06-26T05:09:13;6.50;;;2.30;;
65879;SDS011;52661;51.364;6.054;2023-06-26T05:11:38;6.82;;;2.13;;
65879;SDS011;52661;51.364;6.054;2023-06-26T05:14:04;7.82;;;2.20;;
65879;SDS011;52661;51.364;6.054;2023-06-26T05:16:32;8.98;;;3.45;;
65879;SDS011;52661;51.364;6.054;2023-06-26T05:18:59;6.63;;;2.15;;
65879;SDS011;52661;51.364;6.054;2023-06-26T05:21:24;5.55;;;1.98;;
65879;SDS011;52661;51.364;6.054;2023-06-26T05:23:50;4.82;;;1.90;;
65879;SDS011;52661;51.364;6.054;2023-06-26T05:26:20;6.20;;;2.47;;
65879;SDS011;52661;51.364;6.054;2023-06-26T05:28:45;7.57;;;2.22;;
65879;SDS011;52661;51.364;6.054;2023-06-26T05:31:13;8.10;;;2.53;;
65879;SDS011;52661;51.364;6.054;2023-06-26T05:33:39;9.75;;;2.40;;
65879;SDS011;52661;51.364;6.054;2023-06-26T05:36:08;6.97;;;2.10;;
65879;SDS011;52661;51.364;6.054;2023-06-26T05:38:34;6.05;;;1.85;;
65879;SDS011;52661;51.364;6.054;2023-06-26T05:41:00;7.40;;;2.50;;
65879;SDS011;52661;51.364;6.054;2023-06-26T05:43:25;7.38;;;2.03;;
65879;SDS011;52661;51.364;6.054;2023-06-26T05:45:51;6.60;;;2.70;;
65879;SDS011;52661;51.364;6.054;2023-06-26T05:48:16;10.95;;;2.75;;
65879;SDS011;52661;51.364;6.054;2023-06-26T05:50:41;7.40;;;2.00;;
65879;SDS011;52661;51.364;6.054;2023-06-26T05:53:07;7.50;;;3.08;;
65879;SDS011;52661;51.364;6.054;2023-06-26T05:55:33;6.72;;;2.20;;
65879;SDS011;52661;51.364;6.054;2023-06-26T05:57:59;7.55;;;2.60;;
65879;SDS011;52661;51.364;6.054;2023-06-26T06:00:25;8.57;;;1.80;;
65879;SDS011;52661;51.364;6.054;2023-06-26T06:02:51;8.23;;;2.17;;
65879;SDS011;52661;51.364;6.054;2023-06-26T06:05:19;8.85;;;2.35;;
65879;SDS011;52661;51.364;6.054;2023-06-26T06:07:47;8.88;;;2.35;;
65879;SDS011;52661;51.364;6.054;2023-06-26T06:10:13;8.75;;;2.20;;
65879;SDS011;52661;51.364;6.054;2023-06-26T06:12:38;5.30;;;2.03;;
65879;SDS011;52661;51.364;6.054;2023-06-26T06:15:04;8.97;;;1.93;;
65879;SDS011;52661;51.364;6.054;2023-06-26T06:17:30;6.65;;;2.22;;
65879;SDS011;52661;51.364;6.054;2023-06-26T06:19:55;6.68;;;2.05;;
65879;SDS011;52661;51.364;6.054;2023-06-26T06:22:21;7.90;;;2.13;;
65879;SDS011;52661;51.364;6.054;2023-06-26T06:24:46;5.53;;;2.10;;
65879;SDS011;52661;51.364;6.054;2023-06-26T06:27:13;11.75;;;2.13;;
65879;SDS011;52661;51.364;6.054;2023-06-26T06:29:39;8.20;;;2.22;;
65879;SDS011;52661;51.364;6.054;2023-06-26T06:32:05;8.52;;;2.47;;
65879;SDS011;52661;51.364;6.054;2023-06-26T06:34:31;6.68;;;2.10;;
65879;SDS011;52661;51.364;6.054;2023-06-26T06:36:56;5.70;;;2.03;;
65879;SDS011;52661;51.364;6.054;2023-06-26T06:39:21;6.53;;;1.63;;
65879;SDS011;52661;51.364;6.054;2023-06-26T06:41:47;13.50;;;3.27;;
65879;SDS011;52661;51.364;6.054;2023-06-26T06:44:12;8.50;;;2.07;;
65879;SDS011;52661;51.364;6.054;2023-06-26T06:46:37;8.88;;;1.88;;
65879;SDS011;52661;51.364;6.054;2023-06-26T06:49:03;5.25;;;1.60;;
65879;SDS011;52661;51.364;6.054;2023-06-26T06:51:29;7.63;;;2.22;;
65879;SDS011;52661;51.364;6.054;2023-06-26T06:53:54;7.07;;;1.33;;
65879;SDS011;52661;51.364;6.054;2023-06-26T06:56:19;8.50;;;1.83;;
65879;SDS011;52661;51.364;6.054;2023-06-26T06:58:45;10.17;;;1.63;;
65879;SDS011;52661;51.364;6.054;2023-06-26T07:01:12;7.35;;;1.75;;
65879;SDS011;52661;51.364;6.054;2023-06-26T07:03:38;8.32;;;1.42;;
65879;SDS011;52661;51.364;6.054;2023-06-26T07:06:03;7.18;;;2.35;;
65879;SDS011;52661;51.364;6.054;2023-06-26T07:08:29;8.82;;;1.52;;
65879;SDS011;52661;51.364;6.054;2023-06-26T07:10:55;7.43;;;1.58;;
65879;SDS011;52661;51.364;6.054;2023-06-26T07:13:21;9.52;;;1.65;;
65879;SDS011;52661;51.364;6.054;2023-06-26T07:15:47;7.25;;;1.63;;
65879;SDS011;52661;51.364;6.054;2023-06-26T07:18:12;6.70;;;1.58;;
65879;SDS011;52661;51.364;6.054;2023-06-26T07:20:38;7.03;;;2.58;;
65879;SDS011;52661;51.364;6.054;2023-06-26T07:23:03;7.95;;;1.75;;
65879;SDS011;52661;51.364;6.054;2023-06-26T07:25:29;6.40;;;1.55;;
65879;SDS011;52661;51.364;6.054;2023-06-26T07:27:54;7.70;;;1.60;;
65879;SDS011;52661;51.364;6.054;2023-06-26T07:30:19;4.80;;;1.47;;
65879;SDS011;52661;51.364;6.054;2023-06-26T07:32:45;6.38;;;1.42;;
65879;SDS011;52661;51.364;6.054;2023-06-26T07:35:10;7.70;;;1.20;;
65879;SDS011;52661;51.364;6.054;2023-06-26T07:37:36;9.65;;;1.73;;
65879;SDS011;52661;51.364;6.054;2023-06-26T07:40:01;7.88;;;1.88;;
65879;SDS011;52661;51.364;6.054;2023-06-26T07:42:27;4.95;;;1.45;;
65879;SDS011;52661;51.364;6.054;2023-06-26T07:44:53;8.13;;;1.42;;
65879;SDS011;52661;51.364;6.054;2023-06-26T07:47:18;5.43;;;1.60;;
65879;SDS011;52661;51.364;6.054;2023-06-26T07:49:43;7.40;;;1.47;;
65879;SDS011;52661;51.364;6.054;2023-06-26T07:52:09;8.65;;;2.38;;
65879;SDS011;52661;51.364;6.054;2023-06-26T07:54:37;7.43;;;1.70;;
65879;SDS011;52661;51.364;6.054;2023-06-26T07:57:03;7.72;;;1.38;;
65879;SDS011;52661;51.364;6.054;2023-06-26T07:59:33;5.30;;;1.67;;
65879;SDS011;52661;51.364;6.054;2023-06-26T08:01:59;5.90;;;1.48;;
65879;SDS011;52661;51.364;6.054;2023-06-26T08:04:26;6.57;;;1.98;;
65879;SDS011;52661;51.364;6.054;2023-06-26T08:06:54;7.45;;;1.70;;
65879;SDS011;52661;51.364;6.054;2023-06-26T08:09:22;9.02;;;1.60;;
65879;SDS011;52661;51.364;6.054;2023-06-26T08:11:50;5.65;;;1.60;;
65879;SDS011;52661;51.364;6.054;2023-06-26T08:14:16;7.20;;;1.75;;
65879;SDS011;52661;51.364;6.054;2023-06-26T08:16:42;5.70;;;1.92;;
65879;SDS011;52661;51.364;6.054;2023-06-26T08:19:12;6.38;;;1.67;;
65879;SDS011;52661;51.364;6.054;2023-06-26T08:21:39;6.95;;;1.58;;
65879;SDS011;52661;51.364;6.054;2023-06-26T08:24:04;7.65;;;1.55;;
65879;SDS011;52661;51.364;6.054;2023-06-26T08:26:30;5.83;;;1.50;;
65879;SDS011;52661;51.364;6.054;2023-06-26T08:28:55;5.67;;;1.20;;
65879;SDS011;52661;51.364;6.054;2023-06-26T08:31:20;5.85;;;1.30;;
65879;SDS011;52661;51.364;6.054;2023-06-26T08:33:46;5.63;;;1.23;;
65879;SDS011;52661;51.364;6.054;2023-06-26T08:36:12;4.88;;;1.80;;
65879;SDS011;52661;51.364;6.054;2023-06-26T08:38:37;5.70;;;1.23;;
65879;SDS011;52661;51.364;6.054;2023-06-26T08:41:05;5.05;;;1.77;;
65879;SDS011;52661;51.364;6.054;2023-06-26T08:43:31;7.20;;;1.33;;
65879;SDS011;52661;51.364;6.054;2023-06-26T08:45:56;8.23;;;1.60;;
65879;SDS011;52661;51.364;6.054;2023-06-26T08:48:22;4.78;;;1.67;;
65879;SDS011;52661;51.364;6.054;2023-06-26T08:50:49;3.95;;;1.33;;
65879;SDS011;52661;51.364;6.054;2023-06-26T08:53:40;5.25;;;1.70;;
65879;SDS011;52661;51.364;6.054;2023-06-26T08:56:12;4.18;;;1.73;;
65879;SDS011;52661;51.364;6.054;2023-06-26T08:58:42;5.80;;;1.33;;
65879;SDS011;52661;51.364;6.054;2023-06-26T09:01:08;4.45;;;1.42;;
65879;SDS011;52661;51.364;6.054;2023-06-26T09:03:33;4.75;;;1.38;;
65879;SDS011;52661;51.364;6.054;2023-06-26T09:05:59;6.45;;;1.23;;
65879;SDS011;52661;51.364;6.054;2023-06-26T09:08:25;3.78;;;1.65;;
65879;SDS011;52661;51.364;6.054;2023-06-26T09:10:51;3.78;;;1.63;;
65879;SDS011;52661;51.364;6.054;2023-06-26T09:13:17;5.57;;;1.63;;
65879;SDS011;52661;51.364;6.054;2023-06-26T09:15:43;5.05;;;2.10;;
65879;SDS011;52661;51.364;6.054;2023-06-26T09:18:10;3.35;;;1.40;;
65879;SDS011;52661;51.364;6.054;2023-06-26T09:20:36;8.80;;;1.50;;
65879;SDS011;52661;51.364;6.054;2023-06-26T09:23:02;7.63;;;1.13;;
65879;SDS011;52661;51.364;6.054;2023-06-26T09:25:28;5.15;;;1.38;;
65879;SDS011;52661;51.364;6.054;2023-06-26T09:27:54;3.92;;;1.10;;
65879;SDS011;52661;51.364;6.054;2023-06-26T09:30:20;6.53;;;1.23;;
65879;SDS011;52661;51.364;6.054;2023-06-26T09:32:46;6.38;;;1.33;;
65879;SDS011;52661;51.364;6.054;2023-06-26T09:35:12;5.10;;;1.33;;
65879;SDS011;52661;51.364;6.054;2023-06-26T09:37:37;6.07;;;1.48;;
65879;SDS011;52661;51.364;6.054;2023-06-26T09:40:03;3.60;;;0.85;;
65879;SDS011;52661;51.364;6.054;2023-06-26T09:42:30;4.38;;;1.00;;
65879;SDS011;52661;51.364;6.054;2023-06-26T09:44:56;2.85;;;0.75;;
65879;SDS011;52661;51.364;6.054;2023-06-26T09:47:22;3.20;;;0.73;;
65879;SDS011;52661;51.364;6.054;2023-06-26T09:49:47;4.07;;;0.70;;
65879;SDS011;52661;51.364;6.054;2023-06-26T09:52:14;3.15;;;1.10;;
65879;SDS011;52661;51.364;6.054;2023-06-26T09:54:41;4.10;;;1.20;;
65879;SDS011;52661;51.364;6.054;2023-06-26T09:57:10;2.67;;;0.63;;
65879;SDS011;52661;51.364;6.054;2023-06-26T09:59:36;6.78;;;1.13;;
65879;SDS011;52661;51.364;6.054;2023-06-26T10:02:02;6.15;;;0.68;;
65879;SDS011;52661;51.364;6.054;2023-06-26T10:04:30;3.80;;;0.55;;
65879;SDS011;52661;51.364;6.054;2023-06-26T10:06:56;4.60;;;1.08;;
65879;SDS011;52661;51.364;6.054;2023-06-26T10:09:23;2.22;;;0.75;;
65879;SDS011;52661;51.364;6.054;2023-06-26T10:12:02;3.45;;;1.13;;
65879;SDS011;52661;51.364;6.054;2023-06-26T10:14:33;1.95;;;0.82;;
65879;SDS011;52661;51.364;6.054;2023-06-26T10:17:01;1.92;;;1.17;;
65879;SDS011;52661;51.364;6.054;2023-06-26T10:19:29;2.10;;;1.15;;
65879;SDS011;52661;51.364;6.054;2023-06-26T10:21:57;3.25;;;1.35;;
65879;SDS011;52661;51.364;6.054;2023-06-26T10:24:23;2.63;;;0.60;;
65879;SDS011;52661;51.364;6.054;2023-06-26T10:26:59;3.63;;;0.52;;
65879;SDS011;52661;51.364;6.054;2023-06-26T10:29:28;2.60;;;0.95;;
65879;SDS011;52661;51.364;6.054;2023-06-26T10:31:58;2.72;;;0.40;;
65879;SDS011;52661;51.364;6.054;2023-06-26T10:37:00;1.75;;;0.65;;
65879;SDS011;52661;51.364;6.054;2023-06-26T10:39:26;2.47;;;0.90;;
65879;SDS011;52661;51.364;6.054;2023-06-26T10:41:54;3.83;;;1.10;;
65879;SDS011;52661;51.364;6.054;2023-06-26T10:44:20;3.22;;;1.10;;
65879;SDS011;52661;51.364;6.054;2023-06-26T10:46:53;2.92;;;0.80;;
65879;SDS011;52661;51.364;6.054;2023-06-26T10:49:20;2.30;;;0.55;;
65879;SDS011;52661;51.364;6.054;2023-06-26T10:51:50;2.47;;;0.85;;
65879;SDS011;52661;51.364;6.054;2023-06-26T10:54:18;1.88;;;0.55;;
65879;SDS011;52661;51.364;6.054;2023-06-26T10:56:50;4.05;;;0.90;;
65879;SDS011;52661;51.364;6.054;2023-06-26T10:59:26;2.47;;;0.50;;
65879;SDS011;52661;51.364;6.054;2023-06-26T11:02:00;3.72;;;0.43;;
65879;SDS011;52661;51.364;6.054;2023-06-26T11:04:45;6.30;;;0.65;;
65879;SDS011;52661;51.364;6.054;2023-06-26T11:09:54;2.97;;;0.40;;
65879;SDS011;52661;51.364;6.054;2023-06-26T11:15:10;0.82;;;0.32;;
65879;SDS011;52661;51.364;6.054;2023-06-26T11:17:37;1.90;;;0.43;;
65879;SDS011;52661;51.364;6.054;2023-06-26T11:20:07;5.88;;;0.50;;
65879;SDS011;52661;51.364;6.054;2023-06-26T11:22:34;1.42;;;0.73;;
65879;SDS011;52661;51.364;6.054;2023-06-26T11:30:22;1.85;;;0.82;;
65879;SDS011;52661;51.364;6.054;2023-06-26T11:32:48;1.33;;;0.65;;
65879;SDS011;52661;51.364;6.054;2023-06-26T11:35:21;3.05;;;0.35;;
65879;SDS011;52661;51.364;6.054;2023-06-26T11:37:55;1.50;;;0.43;;
65879;SDS011;52661;51.364;6.054;2023-06-26T11:40:22;3.08;;;0.50;;
65879;SDS011;52661;51.364;6.054;2023-06-26T11:42:52;1.33;;;0.35;;
65879;SDS011;52661;51.364;6.054;2023-06-26T11:45:18;2.22;;;0.50;;
65879;SDS011;52661;51.364;6.054;2023-06-26T11:47:44;1.30;;;0.45;;
65879;SDS011;52661;51.364;6.054;2023-06-26T11:50:14;2.13;;;0.22;;
65879;SDS011;52661;51.364;6.054;2023-06-26T11:52:43;1.52;;;0.75;;
65879;SDS011;52661;51.364;6.054;2023-06-26T11:55:09;2.38;;;0.52;;
65879;SDS011;52661;51.364;6.054;2023-06-26T11:57:35;2.55;;;0.28;;
65879;SDS011;52661;51.364;6.054;2023-06-26T12:00:11;1.85;;;0.38;;
65879;SDS011;52661;51.364;6.054;2023-06-26T12:02:37;3.35;;;0.70;;
65879;SDS011;52661;51.364;6.054;2023-06-26T12:05:03;2.17;;;1.10;;
65879;SDS011;52661;51.364;6.054;2023-06-26T12:07:29;1.35;;;0.43;;
65879;SDS011;52661;51.364;6.054;2023-06-26T12:09:56;2.10;;;0.52;;
65879;SDS011;52661;51.364;6.054;2023-06-26T12:12:23;2.53;;;0.40;;
65879;SDS011;52661;51.364;6.054;2023-06-26T12:14:50;1.90;;;0.55;;
65879;SDS011;52661;51.364;6.054;2023-06-26T12:17:16;1.85;;;0.35;;
65879;SDS011;52661;51.364;6.054;2023-06-26T12:19:45;4.65;;;0.40;;
65879;SDS011;52661;51.364;6.054;2023-06-26T12:22:15;2.47;;;0.60;;
65879;SDS011;52661;51.364;6.054;2023-06-26T12:24:41;5.30;;;0.55;;
65879;SDS011;52661;51.364;6.054;2023-06-26T12:27:18;2.85;;;0.85;;
65879;SDS011;52661;51.364;6.054;2023-06-26T12:29:51;2.92;;;0.43;;
65879;SDS011;52661;51.364;6.054;2023-06-26T12:32:18;1.10;;;0.50;;
65879;SDS011;52661;51.364;6.054;2023-06-26T12:34:46;3.08;;;0.93;;
65879;SDS011;52661;51.364;6.054;2023-06-26T12:37:13;4.05;;;0.73;;
65879;SDS011;52661;51.364;6.054;2023-06-26T12:42:22;1.90;;;1.05;;
65879;SDS011;52661;51.364;6.054;2023-06-26T12:44:49;1.60;;;1.13;;
65879;SDS011;52661;51.364;6.054;2023-06-26T12:47:15;1.75;;;0.55;;
65879;SDS011;52661;51.364;6.054;2023-06-26T12:49:43;2.10;;;0.98;;
65879;SDS011;52661;51.364;6.054;2023-06-26T12:52:13;3.50;;;0.70;;
65879;SDS011;52661;51.364;6.054;2023-06-26T12:54:40;2.95;;;0.90;;
65879;SDS011;52661;51.364;6.054;2023-06-26T12:57:06;3.55;;;0.52;;
65879;SDS011;52661;51.364;6.054;2023-06-26T12:59:33;2.05;;;0.43;;
65879;SDS011;52661;51.364;6.054;2023-06-26T13:02:00;3.50;;;0.40;;
65879;SDS011;52661;51.364;6.054;2023-06-26T13:04:25;1.45;;;0.35;;
65879;SDS011;52661;51.364;6.054;2023-06-26T13:06:51;3.50;;;0.40;;
65879;SDS011;52661;51.364;6.054;2023-06-26T13:09:19;4.35;;;1.00;;
65879;SDS011;52661;51.364;6.054;2023-06-26T13:11:45;3.08;;;0.85;;
65879;SDS011;52661;51.364;6.054;2023-06-26T13:14:10;3.58;;;0.80;;
65879;SDS011;52661;51.364;6.054;2023-06-26T13:16:36;4.57;;;0.90;;
65879;SDS011;52661;51.364;6.054;2023-06-26T13:19:01;1.65;;;0.98;;
65879;SDS011;52661;51.364;6.054;2023-06-26T13:21:27;1.98;;;0.63;;
65879;SDS011;52661;51.364;6.054;2023-06-26T13:23:53;2.72;;;0.60;;
65879;SDS011;52661;51.364;6.054;2023-06-26T13:26:20;2.78;;;1.25;;
65879;SDS011;52661;51.364;6.054;2023-06-26T13:28:46;1.33;;;0.43;;
65879;SDS011;52661;51.364;6.054;2023-06-26T13:31:12;2.13;;;0.65;;
65879;SDS011;52661;51.364;6.054;2023-06-26T13:33:37;3.42;;;0.57;;
65879;SDS011;52661;51.364;6.054;2023-06-26T13:36:03;2.03;;;0.37;;
65879;SDS011;52661;51.364;6.054;2023-06-26T13:38:30;5.75;;;1.77;;
65879;SDS011;52661;51.364;6.054;2023-06-26T13:40:57;2.03;;;0.50;;
65879;SDS011;52661;51.364;6.054;2023-06-26T13:43:25;3.33;;;0.32;;
65879;SDS011;52661;51.364;6.054;2023-06-26T13:45:51;2.63;;;1.15;;
65879;SDS011;52661;51.364;6.054;2023-06-26T13:48:17;6.95;;;0.63;;
65879;SDS011;52661;51.364;6.054;2023-06-26T13:50:42;2.42;;;0.80;;
65879;SDS011;52661;51.364;6.054;2023-06-26T13:53:08;1.45;;;0.80;;
65879;SDS011;52661;51.364;6.054;2023-06-26T13:55:34;2.25;;;0.80;;
65879;SDS011;52661;51.364;6.054;2023-06-26T13:57:59;2.53;;;0.73;;
65879;SDS011;52661;51.364;6.054;2023-06-26T14:00:29;9.82;;;0.65;;
65879;SDS011;52661;51.364;6.054;2023-06-26T14:02:54;2.25;;;0.45;;
65879;SDS011;52661;51.364;6.054;2023-06-26T14:05:21;2.38;;;0.63;;
65879;SDS011;52661;51.364;6.054;2023-06-26T14:07:47;4.15;;;1.08;;
65879;SDS011;52661;51.364;6.054;2023-06-26T14:10:12;2.53;;;0.47;;
65879;SDS011;52661;51.364;6.054;2023-06-26T14:12:38;2.40;;;0.40;;
65879;SDS011;52661;51.364;6.054;2023-06-26T14:15:05;8.10;;;1.52;;
65879;SDS011;52661;51.364;6.054;2023-06-26T14:17:32;6.38;;;0.35;;
65879;SDS011;52661;51.364;6.054;2023-06-26T14:19:57;3.78;;;0.55;;
65879;SDS011;52661;51.364;6.054;2023-06-26T14:22:23;2.17;;;0.35;;
65879;SDS011;52661;51.364;6.054;2023-06-26T14:24:48;2.20;;;0.43;;
65879;SDS011;52661;51.364;6.054;2023-06-26T14:27:14;4.15;;;1.13;;
65879;SDS011;52661;51.364;6.054;2023-06-26T14:29:39;1.55;;;1.13;;
65879;SDS011;52661;51.364;6.054;2023-06-26T14:32:05;7.65;;;0.90;;
65879;SDS011;52661;51.364;6.054;2023-06-26T14:34:31;4.07;;;0.60;;
65879;SDS011;52661;51.364;6.054;2023-06-26T14:36:56;1.55;;;0.90;;
65879;SDS011;52661;51.364;6.054;2023-06-26T14:39:22;1.83;;;0.43;;
65879;SDS011;52661;51.364;6.054;2023-06-26T14:41:47;1.63;;;0.35;;
65879;SDS011;52661;51.364;6.054;2023-06-26T14:44:13;2.78;;;0.73;;
65879;SDS011;52661;51.364;6.054;2023-06-26T14:46:39;1.45;;;0.60;;
65879;SDS011;52661;51.364;6.054;2023-06-26T14:49:04;4.50;;;0.38;;
65879;SDS011;52661;51.364;6.054;2023-06-26T14:51:29;1.55;;;0.90;;
65879;SDS011;52661;51.364;6.054;2023-06-26T14:53:55;1.98;;;1.00;;
65879;SDS011;52661;51.364;6.054;2023-06-26T14:56:20;5.07;;;0.30;;
65879;SDS011;52661;51.364;6.054;2023-06-26T14:58:46;1.80;;;0.93;;
65879;SDS011;52661;51.364;6.054;2023-06-26T15:01:14;4.25;;;1.25;;
65879;SDS011;52661;51.364;6.054;2023-06-26T15:03:40;3.25;;;1.05;;
65879;SDS011;52661;51.364;6.054;2023-06-26T15:06:06;2.42;;;1.45;;